createdAt,value
2022-12-25T00:02:11.318Z,26
2022-12-25T00:04:23.209Z,21
2022-12-25T00:06:35.100Z,18
2022-12-25T00:08:46.992Z,21
2022-12-25T00:10:58.883Z,19
2022-12-25T00:13:10.775Z,20
2022-12-25T00:15:22.666Z,19
2022-12-25T00:17:34.558Z,28
2022-12-25T00:19:46.448Z,21
2022-12-25T00:21:58.338Z,21
2022-12-25T00:24:10.229Z,26
2022-12-25T00:28:17.627Z,26
2022-12-25T00:30:29.517Z,21
2022-12-25T00:32:41.409Z,18
2022-12-25T00:34:53.299Z,27
2022-12-25T00:37:05.190Z,16
2022-12-25T00:39:17.080Z,17
2022-12-25T00:41:28.970Z,15
2022-12-25T00:43:40.861Z,14
2022-12-25T00:45:52.752Z,14
2022-12-25T00:48:04.644Z,13
2022-12-25T00:50:16.535Z,18
2022-12-25T00:52:28.427Z,12
2022-12-25T00:54:40.318Z,20
2022-12-25T00:56:52.209Z,12
2022-12-25T00:59:04.100Z,21
2022-12-25T01:01:15.990Z,20
2022-12-25T01:03:27.881Z,22
2022-12-25T01:05:39.771Z,25
2022-12-25T01:07:51.663Z,23
2022-12-25T01:10:03.554Z,14
2022-12-25T01:12:15.445Z,13
2022-12-25T01:14:27.336Z,17
2022-12-25T01:16:39.227Z,17
2022-12-25T01:18:51.118Z,18
2022-12-25T01:21:03.009Z,19
2022-12-25T01:23:14.900Z,14
2022-12-25T01:25:26.791Z,12
2022-12-25T01:29:34.188Z,9
2022-12-25T01:31:46.080Z,8
2022-12-25T01:33:57.971Z,10
2022-12-25T01:36:09.862Z,9
2022-12-25T01:38:21.754Z,9
2022-12-25T01:40:33.645Z,11
2022-12-25T01:42:45.537Z,10
2022-12-25T01:44:57.427Z,11
2022-12-25T01:47:09.319Z,11
2022-12-25T01:49:21.210Z,14
2022-12-25T01:51:33.101Z,10
2022-12-25T01:53:44.992Z,9
2022-12-25T01:55:56.883Z,10
2022-12-25T01:58:08.774Z,9
2022-12-25T02:00:20.664Z,12
2022-12-25T02:02:32.556Z,15
2022-12-25T02:04:44.447Z,20
2022-12-25T02:06:56.337Z,13
2022-12-25T02:09:08.229Z,6
2022-12-25T02:11:20.120Z,9
2022-12-25T02:13:32.012Z,8
2022-12-25T02:15:43.903Z,12
2022-12-25T02:17:55.795Z,12
2022-12-25T02:20:07.685Z,5
2022-12-25T02:22:19.577Z,5
2022-12-25T02:24:31.467Z,5
2022-12-25T02:26:43.357Z,5
2022-12-25T02:28:55.249Z,3
2022-12-25T02:31:07.139Z,6
2022-12-25T02:33:19.031Z,7
2022-12-25T02:35:30.921Z,3
2022-12-25T02:37:42.813Z,6
2022-12-25T02:39:54.703Z,9
2022-12-25T02:42:06.595Z,12
2022-12-25T02:44:18.485Z,13
2022-12-25T02:46:30.376Z,10
2022-12-25T02:48:42.268Z,10
2022-12-25T02:50:54.158Z,8
2022-12-25T02:53:06.049Z,10
2022-12-25T02:55:17.940Z,13
2022-12-25T02:57:29.832Z,7
2022-12-25T02:59:41.723Z,9
2022-12-25T03:01:53.614Z,10
2022-12-25T03:04:05.505Z,13
2022-12-25T03:06:17.395Z,12
2022-12-25T03:08:29.286Z,12
2022-12-25T03:10:41.176Z,9
2022-12-25T03:12:53.067Z,10
2022-12-25T03:15:04.958Z,11
2022-12-25T03:17:16.850Z,12
2022-12-25T03:19:28.740Z,9
2022-12-25T03:21:40.632Z,9
2022-12-25T03:23:52.523Z,13
2022-12-25T03:26:04.414Z,14
2022-12-25T03:28:16.304Z,17
2022-12-25T03:30:28.194Z,15
2022-12-25T03:32:40.086Z,15
2022-12-25T03:34:51.977Z,13
2022-12-25T03:37:03.869Z,13
2022-12-25T03:39:15.760Z,11
2022-12-25T03:41:27.651Z,10
2022-12-25T03:43:39.542Z,8
2022-12-25T03:45:51.433Z,5
2022-12-25T03:48:03.324Z,6
2022-12-25T03:50:15.215Z,6
2022-12-25T03:52:27.107Z,7
2022-12-25T03:54:38.998Z,8
2022-12-25T03:56:50.890Z,10
2022-12-25T03:59:02.781Z,10
2022-12-25T04:01:14.671Z,11
2022-12-25T04:03:26.562Z,12
2022-12-25T04:05:38.454Z,10
2022-12-25T04:07:50.344Z,10
2022-12-25T04:10:02.235Z,11
2022-12-25T04:12:14.127Z,8
2022-12-25T04:14:26.017Z,8
2022-12-25T04:16:37.908Z,10
2022-12-25T04:18:49.798Z,8
2022-12-25T04:21:01.689Z,9
2022-12-25T04:23:13.579Z,7
2022-12-25T04:25:25.470Z,8
2022-12-25T04:27:37.360Z,10
2022-12-25T04:29:49.251Z,7
2022-12-25T04:32:01.141Z,9
2022-12-25T04:34:13.033Z,9
2022-12-25T04:36:24.924Z,10
2022-12-25T04:38:36.815Z,8
2022-12-25T04:40:48.705Z,12
2022-12-25T04:43:00.597Z,8
2022-12-25T04:45:12.487Z,8
2022-12-25T04:47:24.378Z,8
2022-12-25T04:49:36.269Z,7
2022-12-25T04:51:48.159Z,6
2022-12-25T04:54:00.050Z,7
2022-12-25T04:56:11.940Z,7
2022-12-25T04:58:23.831Z,8
2022-12-25T05:00:35.721Z,9
2022-12-25T05:02:47.613Z,8
2022-12-25T05:04:59.504Z,12
2022-12-25T05:07:11.395Z,11
2022-12-25T05:09:23.285Z,13
2022-12-25T05:11:35.176Z,11
2022-12-25T05:13:47.066Z,12
2022-12-25T05:15:58.957Z,12
2022-12-25T05:18:10.847Z,12
2022-12-25T05:20:22.737Z,9
2022-12-25T05:22:34.628Z,9
2022-12-25T05:24:46.520Z,8
2022-12-25T05:26:58.409Z,6
2022-12-25T05:29:10.299Z,7
2022-12-25T05:31:22.190Z,10
2022-12-25T05:33:34.081Z,9
2022-12-25T05:37:41.477Z,7
2022-12-25T05:39:53.368Z,7
2022-12-25T05:42:05.258Z,8
2022-12-25T05:44:17.150Z,7
2022-12-25T05:46:29.041Z,9
2022-12-25T05:48:40.933Z,7
2022-12-25T05:50:52.824Z,8
2022-12-25T05:53:04.714Z,8
2022-12-25T05:55:16.605Z,8
2022-12-25T05:57:28.495Z,10
2022-12-25T05:59:40.387Z,8
2022-12-25T06:01:52.278Z,8
2022-12-25T06:04:04.169Z,5
2022-12-25T06:06:16.059Z,5
2022-12-25T06:08:27.950Z,5
2022-12-25T06:10:39.840Z,9
2022-12-25T06:12:51.731Z,9
2022-12-25T06:15:03.621Z,8
2022-12-25T06:17:15.512Z,10
2022-12-25T06:19:27.404Z,10
2022-12-25T06:21:39.294Z,11
2022-12-25T06:23:51.185Z,10
2022-12-25T06:26:03.075Z,7
2022-12-25T06:28:14.966Z,5
2022-12-25T06:30:26.856Z,3
2022-12-25T06:32:38.747Z,5
2022-12-25T06:36:46.143Z,6
2022-12-25T06:38:58.034Z,5
2022-12-25T06:41:09.924Z,5
2022-12-25T06:43:21.815Z,6
2022-12-25T06:45:33.706Z,8
2022-12-25T06:47:45.598Z,8
2022-12-25T06:49:57.488Z,10
2022-12-25T06:52:09.379Z,9
2022-12-25T06:54:21.269Z,9
2022-12-25T06:56:33.159Z,12
2022-12-25T06:58:45.050Z,8
2022-12-25T07:00:56.940Z,6
2022-12-25T07:03:08.831Z,7
2022-12-25T07:05:20.721Z,7
2022-12-25T07:07:32.612Z,7
2022-12-25T07:09:44.502Z,4
2022-12-25T07:11:56.393Z,5
2022-12-25T07:14:08.283Z,4
2022-12-25T07:16:20.174Z,6
2022-12-25T07:18:32.064Z,5
2022-12-25T07:20:43.955Z,5
2022-12-25T07:22:55.845Z,6
2022-12-25T07:25:07.736Z,6
2022-12-25T07:27:19.628Z,8
2022-12-25T07:29:31.518Z,7
2022-12-25T07:31:43.409Z,10
2022-12-25T07:33:55.299Z,8
2022-12-25T07:36:07.190Z,10
2022-12-25T07:38:19.080Z,10
2022-12-25T07:40:30.971Z,11
2022-12-25T07:42:42.861Z,9
2022-12-25T07:44:54.752Z,9
2022-12-25T07:49:02.148Z,6
2022-12-25T07:51:14.039Z,7
2022-12-25T07:53:25.929Z,11
2022-12-25T07:55:37.820Z,9
2022-12-25T07:57:49.710Z,8
2022-12-25T08:00:01.601Z,10
2022-12-25T08:02:13.491Z,11
2022-12-25T08:04:25.382Z,9
2022-12-25T08:06:37.273Z,14
2022-12-25T08:08:49.163Z,13
2022-12-25T08:11:01.053Z,15
2022-12-25T08:13:12.943Z,14
2022-12-25T08:15:24.835Z,10
2022-12-25T08:17:36.724Z,13
2022-12-25T08:19:48.615Z,10
2022-12-25T08:22:00.505Z,13
2022-12-25T08:24:12.396Z,18
2022-12-25T08:26:24.286Z,14
2022-12-25T08:28:36.177Z,17
2022-12-25T08:30:48.067Z,14
2022-12-25T08:32:59.958Z,12
2022-12-25T08:35:11.848Z,15
2022-12-25T08:37:23.739Z,14
2022-12-25T08:39:35.629Z,13
2022-12-25T08:41:47.520Z,13
2022-12-25T08:43:59.410Z,18
2022-12-25T08:46:11.300Z,12
2022-12-25T08:48:23.191Z,12
2022-12-25T08:50:35.081Z,11
2022-12-25T08:52:46.972Z,11
2022-12-25T08:54:58.862Z,10
2022-12-25T08:57:10.753Z,9
2022-12-25T08:59:22.644Z,8
2022-12-25T09:01:34.534Z,8
2022-12-25T09:03:46.424Z,8
2022-12-25T09:05:58.315Z,12
2022-12-25T09:08:10.206Z,12
2022-12-25T09:10:22.096Z,10
2022-12-25T09:12:33.986Z,10
2022-12-25T09:14:45.877Z,8
2022-12-25T09:16:57.769Z,8
2022-12-25T09:19:09.658Z,7
2022-12-25T09:21:21.548Z,11
2022-12-25T09:23:33.439Z,12
2022-12-25T09:25:45.330Z,11
2022-12-25T09:27:57.220Z,9
2022-12-25T09:30:09.110Z,10
2022-12-25T09:32:21.001Z,10
2022-12-25T09:34:32.892Z,10
2022-12-25T09:36:44.782Z,11
2022-12-25T09:38:56.672Z,15
2022-12-25T09:41:08.563Z,15
2022-12-25T09:43:20.454Z,13
2022-12-25T09:45:32.344Z,16
2022-12-25T09:47:44.236Z,12
2022-12-25T09:51:51.634Z,10
2022-12-25T09:54:03.524Z,10
2022-12-25T09:56:15.415Z,10
2022-12-25T09:58:27.305Z,11
2022-12-25T10:00:39.196Z,17
2022-12-25T10:02:51.086Z,6
2022-12-25T10:05:02.977Z,7
2022-12-25T10:07:14.868Z,11
2022-12-25T10:09:26.758Z,12
2022-12-25T10:11:38.649Z,16
2022-12-25T10:13:50.539Z,4
2022-12-25T10:16:02.430Z,4
2022-12-25T10:18:14.320Z,4
2022-12-25T10:20:26.211Z,8
2022-12-25T10:22:38.102Z,17
2022-12-25T10:24:49.992Z,23
2022-12-25T10:27:01.883Z,22
2022-12-25T10:29:13.773Z,31
2022-12-25T10:31:25.664Z,27
2022-12-25T10:33:37.556Z,29
2022-12-25T10:35:49.447Z,25
2022-12-25T10:38:01.338Z,17
2022-12-25T10:40:13.228Z,15
2022-12-25T10:42:25.119Z,14
2022-12-25T10:44:37.010Z,14
2022-12-25T10:46:48.900Z,13
2022-12-25T10:49:00.791Z,12
2022-12-25T10:53:08.190Z,12
2022-12-25T10:55:20.081Z,12
2022-12-25T10:57:31.972Z,11
2022-12-25T10:59:43.863Z,10
2022-12-25T11:01:55.754Z,18
2022-12-25T11:04:07.645Z,14
2022-12-25T11:06:19.536Z,17
2022-12-25T11:08:31.426Z,17
2022-12-25T11:10:43.317Z,22
2022-12-25T11:12:55.209Z,20
2022-12-25T11:15:07.100Z,25
2022-12-25T11:17:18.991Z,24
2022-12-25T11:19:30.882Z,22
2022-12-25T11:21:42.773Z,19
2022-12-25T11:23:54.665Z,24
2022-12-25T11:26:06.556Z,26
2022-12-25T11:28:18.446Z,31
2022-12-25T11:30:30.337Z,21
2022-12-25T11:32:42.228Z,21
2022-12-25T11:34:54.119Z,21
2022-12-25T11:37:06.010Z,21
2022-12-25T11:39:17.902Z,17
2022-12-25T11:41:29.794Z,15
2022-12-25T11:43:41.685Z,15
2022-12-25T11:45:53.576Z,17
2022-12-25T11:48:05.468Z,13
2022-12-25T11:50:17.358Z,17
2022-12-25T11:54:24.758Z,23
2022-12-25T11:56:36.649Z,17
2022-12-25T11:58:48.540Z,18
2022-12-25T12:01:00.432Z,14
2022-12-25T12:03:12.322Z,9
2022-12-25T12:05:24.215Z,11
2022-12-25T12:07:36.105Z,11
2022-12-25T12:09:47.997Z,10
2022-12-25T12:11:59.888Z,10
2022-12-25T12:14:11.780Z,13
2022-12-25T12:16:23.672Z,26
2022-12-25T12:18:35.563Z,26
2022-12-25T12:20:47.454Z,15
2022-12-25T12:22:59.345Z,20
2022-12-25T12:25:11.236Z,16
2022-12-25T12:27:23.127Z,21
2022-12-25T12:29:35.019Z,18
2022-12-25T12:31:46.910Z,19
2022-12-25T12:33:58.801Z,18
2022-12-25T12:36:10.692Z,19
2022-12-25T12:38:22.583Z,22
2022-12-25T12:40:34.475Z,18
2022-12-25T12:42:46.367Z,15
2022-12-25T12:44:58.258Z,19
2022-12-25T12:47:10.150Z,17
2022-12-25T12:49:22.041Z,20
2022-12-25T12:51:33.932Z,13
2022-12-25T12:57:36.837Z,21
2022-12-25T12:59:48.727Z,28
2022-12-25T13:02:00.618Z,25
2022-12-25T13:04:12.509Z,25
2022-12-25T13:06:24.402Z,19
2022-12-25T13:08:36.291Z,26
2022-12-25T13:10:48.182Z,26
2022-12-25T13:13:00.073Z,22
2022-12-25T13:15:11.965Z,15
2022-12-25T13:17:23.856Z,19
2022-12-25T13:19:35.747Z,17
2022-12-25T13:21:47.637Z,17
2022-12-25T13:23:59.529Z,12
2022-12-25T13:26:11.419Z,30
2022-12-25T13:28:23.310Z,34
2022-12-25T13:30:35.201Z,30
2022-12-25T13:32:47.093Z,30
2022-12-25T13:34:58.983Z,28
2022-12-25T13:37:10.874Z,33
2022-12-25T13:39:22.765Z,27
2022-12-25T13:41:34.656Z,19
2022-12-25T13:43:46.547Z,22
2022-12-25T13:45:58.438Z,26
2022-12-25T13:48:10.329Z,18
2022-12-25T13:50:22.220Z,18
2022-12-25T13:52:34.111Z,22
2022-12-25T13:56:41.509Z,27
2022-12-25T13:58:53.401Z,33
2022-12-25T14:01:05.293Z,40
2022-12-25T14:03:17.186Z,27
2022-12-25T14:05:29.076Z,26
2022-12-25T14:07:40.966Z,32
2022-12-25T14:09:52.857Z,33
2022-12-25T14:12:04.749Z,29
2022-12-25T14:14:16.639Z,32
2022-12-25T14:16:28.530Z,28
2022-12-25T14:18:40.421Z,26
2022-12-25T14:20:52.313Z,21
2022-12-25T14:23:04.204Z,27
2022-12-25T14:25:16.094Z,17
2022-12-25T14:27:27.986Z,21
2022-12-25T14:29:39.878Z,21
2022-12-25T14:31:51.769Z,36
2022-12-25T14:34:03.659Z,35
2022-12-25T14:36:15.550Z,18
2022-12-25T14:38:27.441Z,23
2022-12-25T14:40:39.332Z,25
2022-12-25T14:42:51.222Z,21
2022-12-25T14:45:03.113Z,27
2022-12-25T14:47:15.004Z,23
2022-12-25T14:49:26.894Z,25
2022-12-25T14:51:38.785Z,15
2022-12-25T14:53:50.676Z,15
2022-12-25T14:57:58.073Z,20
2022-12-25T15:00:09.964Z,26
2022-12-25T15:02:21.855Z,20
2022-12-25T15:04:33.745Z,19
2022-12-25T15:06:45.637Z,16
2022-12-25T15:08:57.529Z,22
2022-12-25T15:11:09.419Z,15
2022-12-25T15:13:21.311Z,13
2022-12-25T15:15:33.203Z,23
2022-12-25T15:17:45.093Z,17
2022-12-25T15:19:56.984Z,21
2022-12-25T15:22:08.875Z,19
2022-12-25T15:24:20.765Z,23
2022-12-25T15:26:32.657Z,22
2022-12-25T15:28:44.548Z,22
2022-12-25T15:30:56.439Z,14
2022-12-25T15:33:08.330Z,14
2022-12-25T15:35:20.221Z,15
2022-12-25T15:37:32.112Z,9
2022-12-25T15:39:44.004Z,14
2022-12-25T15:41:55.894Z,16
2022-12-25T15:44:07.786Z,22
2022-12-25T15:46:19.677Z,27
2022-12-25T15:48:31.569Z,30
2022-12-25T15:50:43.461Z,27
2022-12-25T15:52:55.351Z,29
2022-12-25T15:55:07.242Z,35
2022-12-25T15:57:19.133Z,30
2022-12-25T15:59:31.023Z,31
2022-12-25T16:01:42.914Z,21
2022-12-25T16:03:54.805Z,21
2022-12-25T16:06:06.696Z,17
2022-12-25T16:08:18.588Z,22
2022-12-25T16:10:30.478Z,33
2022-12-25T16:12:42.369Z,24
2022-12-25T16:14:54.259Z,26
2022-12-25T16:17:06.151Z,29
2022-12-25T16:19:18.043Z,35
2022-12-25T16:21:29.933Z,28
2022-12-25T16:23:41.825Z,29
2022-12-25T16:25:53.716Z,25
2022-12-25T16:28:05.607Z,26
2022-12-25T16:30:17.498Z,20
2022-12-25T16:32:29.388Z,24
2022-12-25T16:34:41.280Z,21
2022-12-25T16:36:53.172Z,22
2022-12-25T16:39:05.062Z,30
2022-12-25T16:41:16.953Z,25
2022-12-25T16:43:28.844Z,22
2022-12-25T16:45:40.735Z,31
2022-12-25T16:47:52.627Z,34
2022-12-25T16:50:04.518Z,33
2022-12-25T16:52:16.410Z,25
2022-12-25T16:54:28.301Z,16
2022-12-25T16:56:40.192Z,15
2022-12-25T17:00:47.592Z,13
2022-12-25T17:02:59.483Z,14
2022-12-25T17:05:11.375Z,11
2022-12-25T17:07:23.267Z,13
2022-12-25T17:09:35.157Z,6
2022-12-25T17:11:47.048Z,8
2022-12-25T17:13:58.938Z,11
2022-12-25T17:16:10.829Z,12
2022-12-25T17:18:22.720Z,16
2022-12-25T17:20:34.611Z,10
2022-12-25T17:22:46.503Z,14
2022-12-25T17:24:58.393Z,17
2022-12-25T17:27:10.286Z,22
2022-12-25T17:29:22.177Z,17
2022-12-25T17:31:34.067Z,16
2022-12-25T17:33:45.958Z,15
2022-12-25T17:35:57.849Z,9
2022-12-25T17:38:09.740Z,17
2022-12-25T17:40:21.632Z,9
2022-12-25T17:42:33.524Z,11
2022-12-25T17:44:45.415Z,14
2022-12-25T17:46:57.307Z,19
2022-12-25T17:49:09.198Z,21
2022-12-25T17:51:21.089Z,20
2022-12-25T17:53:32.980Z,25
2022-12-25T17:55:44.870Z,23
2022-12-25T17:57:56.762Z,25
2022-12-25T18:02:04.160Z,23
2022-12-25T18:04:16.051Z,10
2022-12-25T18:06:27.942Z,14
2022-12-25T18:08:39.834Z,9
2022-12-25T18:10:51.725Z,9
2022-12-25T18:13:03.615Z,21
2022-12-25T18:15:15.506Z,23
2022-12-25T18:17:27.397Z,10
2022-12-25T18:19:39.289Z,13
2022-12-25T18:21:51.180Z,13
2022-12-25T18:24:03.070Z,19
2022-12-25T18:26:14.962Z,13
2022-12-25T18:28:26.852Z,15
2022-12-25T18:30:38.745Z,10
2022-12-25T18:32:50.636Z,14
2022-12-25T18:35:02.527Z,14
2022-12-25T18:37:14.419Z,16
2022-12-25T18:39:26.310Z,17
2022-12-25T18:41:38.201Z,16
2022-12-25T18:43:50.093Z,14
2022-12-25T18:46:01.984Z,18
2022-12-25T18:48:13.875Z,19
2022-12-25T18:50:25.765Z,24
2022-12-25T18:52:37.657Z,21
2022-12-25T18:54:49.548Z,19
2022-12-25T18:57:01.439Z,19
2022-12-25T18:59:13.330Z,26
2022-12-25T19:01:25.221Z,28
2022-12-25T19:03:37.111Z,31
2022-12-25T19:05:49.002Z,22
2022-12-25T19:08:00.892Z,20
2022-12-25T19:10:12.784Z,22
2022-12-25T19:12:24.676Z,18
2022-12-25T19:14:36.567Z,15
2022-12-25T19:16:48.458Z,17
2022-12-25T19:19:00.348Z,21
2022-12-25T19:21:12.240Z,15
2022-12-25T19:23:24.131Z,18
2022-12-25T19:25:36.022Z,21
2022-12-25T19:27:47.914Z,21
2022-12-25T19:29:59.804Z,22
2022-12-25T19:32:11.695Z,24
2022-12-25T19:34:23.585Z,18
2022-12-25T19:36:35.476Z,20
2022-12-25T19:38:47.368Z,13
2022-12-25T19:40:59.258Z,15
2022-12-25T19:43:11.150Z,14
2022-12-25T19:45:23.041Z,12
2022-12-25T19:47:34.932Z,18
2022-12-25T19:49:46.824Z,17
2022-12-25T19:51:58.715Z,15
2022-12-25T19:54:10.607Z,17
2022-12-25T19:56:22.498Z,32
2022-12-25T19:58:34.390Z,27
2022-12-25T20:00:46.281Z,26
2022-12-25T20:02:58.171Z,31
2022-12-25T20:05:10.062Z,32
2022-12-25T20:07:21.953Z,23
2022-12-25T20:09:33.845Z,32
2022-12-25T20:11:45.736Z,31
2022-12-25T20:13:57.626Z,22
2022-12-25T20:18:05.023Z,28
2022-12-25T20:20:16.914Z,20
2022-12-25T20:22:28.806Z,11
2022-12-25T20:24:40.697Z,18
2022-12-25T20:26:52.589Z,25
2022-12-25T20:29:04.480Z,27
2022-12-25T20:31:16.373Z,28
2022-12-25T20:33:28.263Z,20
2022-12-25T20:35:40.153Z,22
2022-12-25T20:37:52.044Z,19
2022-12-25T20:40:03.935Z,21
2022-12-25T20:42:15.826Z,27
2022-12-25T20:44:27.718Z,29
2022-12-25T20:46:39.608Z,36
2022-12-25T20:48:51.500Z,17
2022-12-25T20:51:03.390Z,22
2022-12-25T20:53:15.281Z,16
2022-12-25T20:55:27.172Z,15
2022-12-25T20:57:39.064Z,14
2022-12-25T20:59:50.955Z,20
2022-12-25T21:02:02.846Z,22
2022-12-25T21:06:10.245Z,16
2022-12-25T21:08:22.137Z,16
2022-12-25T21:10:34.029Z,20
2022-12-25T21:12:45.918Z,24
2022-12-25T21:14:57.809Z,28
2022-12-25T21:17:09.700Z,26
2022-12-25T21:19:21.590Z,34
2022-12-25T21:21:33.482Z,21
2022-12-25T21:23:45.373Z,31
2022-12-25T21:25:57.264Z,26
2022-12-25T21:28:09.154Z,31
2022-12-25T21:30:21.045Z,29
2022-12-25T21:32:32.936Z,19
2022-12-25T21:34:44.826Z,21
2022-12-25T21:36:56.717Z,26
2022-12-25T21:39:08.608Z,22
2022-12-25T21:41:20.500Z,19
2022-12-25T21:43:32.392Z,21
2022-12-25T21:45:44.282Z,27
2022-12-25T21:47:56.173Z,18
2022-12-25T21:50:08.065Z,19
2022-12-25T21:52:19.955Z,22
2022-12-25T21:54:31.846Z,24
2022-12-25T21:56:43.736Z,21
2022-12-25T21:58:55.628Z,21
2022-12-25T22:01:07.520Z,20
2022-12-25T22:03:19.410Z,24
2022-12-25T22:05:31.302Z,23
2022-12-25T22:07:43.193Z,19
2022-12-25T22:09:55.084Z,21
2022-12-25T22:12:06.974Z,21
2022-12-25T22:14:18.866Z,21
2022-12-25T22:16:30.758Z,21
2022-12-25T22:18:42.649Z,25
2022-12-25T22:20:54.541Z,26
2022-12-25T22:23:06.432Z,23
2022-12-25T22:25:18.324Z,22
2022-12-25T22:27:30.215Z,28
2022-12-25T22:29:42.105Z,27
2022-12-25T22:31:53.996Z,30
2022-12-25T22:34:05.886Z,28
2022-12-25T22:36:17.777Z,21
2022-12-25T22:38:29.667Z,18
2022-12-25T22:40:41.558Z,22
2022-12-25T22:42:53.449Z,23
2022-12-25T22:45:05.339Z,26
2022-12-25T22:47:17.230Z,26
2022-12-25T22:49:29.120Z,37
2022-12-25T22:51:41.011Z,33
2022-12-25T22:53:52.901Z,25
2022-12-25T22:56:04.792Z,22
2022-12-25T22:58:16.683Z,22
2022-12-25T23:00:28.573Z,28
2022-12-25T23:02:40.464Z,22
2022-12-25T23:04:52.354Z,22
2022-12-25T23:07:04.246Z,36
2022-12-25T23:09:16.137Z,38
2022-12-25T23:11:28.029Z,30
2022-12-25T23:13:39.920Z,28
2022-12-25T23:15:51.811Z,22
2022-12-25T23:18:03.702Z,25
2022-12-25T23:20:15.592Z,23
2022-12-25T23:22:27.483Z,16
2022-12-25T23:24:39.374Z,19
2022-12-25T23:26:51.266Z,19
2022-12-25T23:29:03.156Z,23
2022-12-25T23:31:15.048Z,24
2022-12-25T23:33:26.938Z,19
2022-12-25T23:35:38.830Z,20
2022-12-25T23:37:50.722Z,20
2022-12-25T23:40:02.613Z,19
2022-12-25T23:42:14.505Z,19
2022-12-25T23:44:26.396Z,20
2022-12-25T23:46:38.287Z,16
2022-12-25T23:48:50.178Z,20
2022-12-25T23:51:02.071Z,19
2022-12-25T23:53:13.962Z,20
2022-12-25T23:55:25.853Z,16
2022-12-25T23:57:37.744Z,17
2022-12-25T23:59:49.635Z,18
